Thunder radar more information blitzortung!


Radar de pluja more information rain snow radar


Visita la nostra xarxa de llocs de meteo:

Template documentation
and downloads

And another site



No particular awareness of the weather is required.    There are no Weather-warnings

Pagina Historial Weather Underground text

Diari Resum Novembre 22, 2017 Unitats:  Imperial    Mètric   Tant
« Previous Dia
SegĂźent Dia »
Diari Setmana Mensual Anual Personalitzada
  Maxima: Minima: Media:
Temperatura: 65.3 °F 39.2 °F 52.9 °F
Punt de rosada: 50.5 °F 28.2 °F 43 °F
Humitat: 85 % 59 % 70 %
Wind Speed: 8.1 mph 0 mph 2.2 mph
RĂ fegues de vent: 8.1 mph - -
Vent:- - SW
Pression baro: 30.1 in 30 in -
Precipitacions: 0 in    
Historical Graphs
 
 
Dades de taula per Novembre 22, 2017
Temps Temperatura Punt de rosada Pression baro Vent Wind Speed RĂ fegues de vent Humitat Rainfall Rate (Hourly)
00:10 40.5 °F 28.8 °F 30.1 in Calm     63 % 0 in
00:30 39.9 °F 28.2 °F 30.1 in Calm     63 % 0 in
00:40 39.7 °F 28.6 °F 30.1 in Calm     64 % 0 in
01:00 39.6 °F 28.4 °F 30.1 in Calm     64 % 0 in
01:10 39.6 °F 28.8 °F 30.1 in Calm     65 % 0 in
01:20 39.7 °F 28.9 °F 30.1 in Calm     65 % 0 in
01:30 39.7 °F 28.9 °F 30.1 in WSW 1 mph 1 mph 65 % 0 in
01:50 39.4 °F 28.6 °F 30 in Calm   2 mph 65 % 0 in
02:00 39.2 °F 28.4 °F 30.1 in Calm   1 mph 65 % 0 in
02:10 39.2 °F 28.8 °F 30.1 in Calm     66 % 0 in
02:20 39.2 °F 28.8 °F 30.1 in Calm   1 mph 66 % 0 in
02:30 39.2 °F 28.8 °F 30 in Calm     66 % 0 in
02:40 39.6 °F 29.5 °F 30.1 in Calm   1 mph 67 % 0 in
02:50 39.9 °F 29.8 °F 30.1 in Calm     67 % 0 in
03:00 39.7 °F 29.3 °F 30.1 in Calm   1 mph 66 % 0 in
03:10 39.7 °F 29.3 °F 30.1 in Calm     66 % 0 in
03:20 40.5 °F 30.4 °F 30.1 in Calm   1 mph 67 % 0 in
03:30 40.6 °F 30.2 °F 30.1 in SW 1 mph 2 mph 66 % 0 in
03:50 42.3 °F 31.6 °F 30.1 in NE 1 mph 3 mph 66 % 0 in
04:00 43.7 °F 32.7 °F 30.1 in NE 2 mph 3 mph 65 % 0 in
04:10 44.2 °F 33.3 °F 30.1 in ENE 1 mph 2 mph 65 % 0 in
04:20 44.6 °F 33.6 °F 30.1 in Calm   1 mph 65 % 0 in
04:30 45.1 °F 34.2 °F 30.1 in Calm   2 mph 65 % 0 in
04:50 45.5 °F 33.6 °F 30.1 in SSW 1 mph 3 mph 63 % 0 in
10:55 46.2 °F 34.3 °F 30.1 in WSW 2.3 mph 2.3 mph 63 % 0 in
11:05 46.9 °F 35.1 °F 30.1 in SW 2.3 mph 2.3 mph 63 % 0 in
11:10 47.8 °F 35.8 °F 30.1 in ESE 1.2 mph   63 % 0 in
11:15 48.9 °F 36.9 °F 30.1 in Calm     63 % 0 in
11:20 50.4 °F 38.1 °F 30.1 in South 1.2 mph 1.2 mph 63 % 0 in
11:25 51.4 °F 38.8 °F 30.1 in SSW 1.2 mph   62 % 0 in
11:30 52.5 °F 39.9 °F 30.1 in SSW 1.2 mph 1.2 mph 62 % 0 in
11:35 53.2 °F 40.1 °F 30.1 in Calm     61 % 0 in
11:45 55 °F 41.7 °F 30.1 in ESE 2 mph 2 mph 61 % 0 in
11:55 55.2 °F 42.1 °F 30.1 in NE 2.3 mph 2.3 mph 61 % 0 in
12:05 56.3 °F 43 °F 30.1 in ESE 2.3 mph 2.3 mph 61 % 0 in
12:10 56.8 °F 43.5 °F 30.1 in ESE 2.3 mph 2.3 mph 61 % 0 in
12:15 57.7 °F 44.4 °F 30.1 in SW 2.4 mph 2.4 mph 61 % 0 in
12:20 58.6 °F 45.7 °F 30.1 in SW 1.2 mph 1.2 mph 62 % 0 in
12:25 59.5 °F 46.9 °F 30.1 in SW 2.9 mph 2.9 mph 63 % 0 in
12:26 59.4 °F 46.8 °F 30.1 in SW 4.6 mph 4.6 mph 63 % 0 in
12:31 59.4 °F 46.8 °F 30.1 in WSW 2.6 mph 2.6 mph 63 % 0 in
12:36 60.1 °F 47.5 °F 30.1 in SSW 3.5 mph 3.5 mph 63 % 0 in
12:41 60.6 °F 47.8 °F 30.1 in WSW 2.3 mph 2.3 mph 63 % 0 in
12:56 62.2 °F 49.5 °F 30 in SW 3.5 mph 3.5 mph 63 % 0 in
13:01 62.6 °F 49.5 °F 30 in West 4.6 mph 4.6 mph 62 % 0 in
13:06 62.4 °F 49.6 °F 30 in South 5.8 mph 5.8 mph 63 % 0 in
13:11 62.8 °F 49.1 °F 30 in South 2.3 mph 2.3 mph 61 % 0 in
13:16 63.3 °F 49.6 °F 30 in SSW 3.5 mph 3.5 mph 61 % 0 in
13:21 63.3 °F 49.6 °F 30 in SSW 3.5 mph 3.5 mph 61 % 0 in
13:31 62.6 °F 48.9 °F 30 in WSW 3.6 mph 3.6 mph 61 % 0 in
13:41 63.1 °F 48.9 °F 30 in South 5.8 mph 5.8 mph 60 % 0 in
13:46 63.5 °F 49.5 °F 30 in South 4.6 mph 4.6 mph 60 % 0 in
13:51 63.7 °F 49.5 °F 30 in SSE 4.6 mph 4.6 mph 60 % 0 in
13:56 63.7 °F 49.5 °F 30 in South 4.6 mph 4.6 mph 60 % 0 in
14:01 63.9 °F 49.6 °F 30 in SSW 5.8 mph 5.8 mph 60 % 0 in
14:06 64 °F 49.8 °F 30 in South 4.6 mph 4.6 mph 60 % 0 in
14:21 63.9 °F 49.3 °F 30 in West 5.8 mph 5.8 mph 59 % 0 in
14:31 64.8 °F 50.5 °F 30 in WSW 4.6 mph 4.6 mph 60 % 0 in
14:36 64.8 °F 50.5 °F 30 in WSW 4.6 mph 4.6 mph 60 % 0 in
14:41 64.4 °F 49.8 °F 30 in SW 5.8 mph 5.8 mph 59 % 0 in
14:51 64.4 °F 50.2 °F 30 in SW 2.6 mph 2.6 mph 60 % 0 in
15:06 64.8 °F 50.2 °F 30 in SW 5.4 mph 5.4 mph 59 % 0 in
15:11 64.6 °F 49.8 °F 30 in WSW 5.8 mph 5.8 mph 59 % 0 in
15:16 64.4 °F 49.8 °F 30 in WSW 5.8 mph 5.8 mph 59 % 0 in
15:21 64.6 °F 49.8 °F 30 in West 5.8 mph 5.8 mph 59 % 0 in
15:26 64.6 °F 49.8 °F 30 in SW 5.8 mph 5.8 mph 59 % 0 in
15:31 64.6 °F 49.8 °F 30 in SSW 8.1 mph 8.1 mph 59 % 0 in
15:36 64.6 °F 49.8 °F 30 in South 5.6 mph 5.6 mph 59 % 0 in
15:41 64.6 °F 49.8 °F 30 in WSW 2.3 mph 2.3 mph 59 % 0 in
15:46 65.1 °F 50.4 °F 30 in SW 2.3 mph 2.3 mph 59 % 0 in
15:51 65.3 °F 50.5 °F 30 in SSW 2.3 mph 2.3 mph 59 % 0 in
15:56 64.8 °F 50.2 °F 30 in SW 5.8 mph 5.8 mph 59 % 0 in
16:06 64 °F 49.5 °F 30 in SSW 7.4 mph 7.4 mph 59 % 0 in
16:11 63.7 °F 49.1 °F 30 in WSW 3.5 mph 3.5 mph 59 % 0 in
16:21 63.9 °F 49.6 °F 30 in WSW 5.8 mph 5.8 mph 60 % 0 in
16:22 63.9 °F 49.6 °F 30 in SSW 5.8 mph 5.8 mph 60 % 0 in
16:32 63.1 °F 48.9 °F 30 in WSW 2.3 mph 2.3 mph 60 % 0 in
16:37 63 °F 48.9 °F 30 in SSW 3.5 mph 3.5 mph 60 % 0 in
16:42 62.8 °F 48.7 °F 30 in SW 5.8 mph 5.8 mph 60 % 0 in
16:52 62.1 °F 48.4 °F 30 in SW 2.3 mph 2.3 mph 61 % 0 in
17:02 61.5 °F 48.4 °F 30 in SW 2.3 mph 2.6 mph 62 % 0 in
17:07 61.2 °F 48 °F 30 in SW 2.3 mph   62 % 0 in
17:12 60.8 °F 48 °F 30 in SW 3.3 mph 3.3 mph 63 % 0 in
17:17 60.3 °F 47.7 °F 30 in WSW 2.3 mph 2.3 mph 63 % 0 in
17:22 59.9 °F 47.3 °F 30 in SW 3.5 mph 3.5 mph 63 % 0 in
17:27 59.5 °F 47.3 °F 30 in WSW 2.3 mph 2.3 mph 64 % 0 in
17:37 58.6 °F 46.9 °F 30 in WSW 2.3 mph 2.3 mph 65 % 0 in
17:42 58.5 °F 46.8 °F 30 in WNW 1.4 mph 1.6 mph 65 % 0 in
17:52 57.9 °F 46.6 °F 30 in WSW 2.3 mph 2.3 mph 66 % 0 in
18:02 57.6 °F 46.8 °F 30 in WSW 2.3 mph 2.3 mph 67 % 0 in
18:07 57.2 °F 46.2 °F 30 in West 2.3 mph 2.3 mph 67 % 0 in
18:17 57.2 °F 47.1 °F 30 in WSW 3.5 mph 3.5 mph 69 % 0 in
18:22 57 °F 46.9 °F 30 in WSW 3.5 mph 3.5 mph 69 % 0 in
18:27 56.8 °F 47.1 °F 30 in WNW 2.3 mph 2.3 mph 70 % 0 in
18:32 56.7 °F 46.9 °F 30 in WNW 3.5 mph 3.5 mph 70 % 0 in
18:37 56.3 °F 46.9 °F 30 in South 4.3 mph 4.3 mph 71 % 0 in
18:47 55.9 °F 46.9 °F 30 in WSW 1.4 mph 2 mph 72 % 0 in
18:52 55.6 °F 47.1 °F 30 in SW 2.6 mph 2.6 mph 73 % 0 in
18:57 55.4 °F 46.9 °F 30 in WSW 2.3 mph 2.3 mph 73 % 0 in
19:07 55.2 °F 46.8 °F 30 in WSW 2.6 mph 2.6 mph 73 % 0 in
19:17 55 °F 46.9 °F 30 in SW 4.6 mph 4.6 mph 74 % 0 in
19:37 54.3 °F 46.9 °F 30 in WSW 2.9 mph 2.9 mph 76 % 0 in
19:38 54.3 °F 46.9 °F 30 in West 2.4 mph 2.4 mph 76 % 0 in
19:43 54.1 °F 46.8 °F 30 in West 2.3 mph 2.3 mph 76 % 0 in
19:45 44.2 °F 39.4 °F 30 in Calm     83 % 0 in
19:53 53.8 °F 46.4 °F 30 in SW 2.3 mph 2.3 mph 76 % 0 in
19:55 44.2 °F 39.7 °F 30.1 in SW 1 mph 2 mph 84 % 0 in
19:58 53.6 °F 46.2 °F 30 in WSW 2.9 mph 2.9 mph 76 % 0 in
20:03 53.4 °F 46 °F 30 in WSW 2.6 mph 2.6 mph 76 % 0 in
20:05 44.2 °F 39.7 °F 30.1 in Calm     84 % 0 in
20:15 44.4 °F 39.9 °F 30.1 in Calm   1 mph 84 % 0 in
20:18 53.2 °F 46.2 °F 30 in SW 2.3 mph 2.3 mph 77 % 0 in
20:23 53.1 °F 46.4 °F 30 in WSW 2.3 mph 2.3 mph 78 % 0 in
20:25 44.2 °F 39.7 °F 30.1 in Calm     84 % 0 in
20:35 44.2 °F 39.7 °F 30.1 in Calm     84 % 0 in
20:43 53.1 °F 46.4 °F 30 in WSW 3.5 mph 3.5 mph 78 % 0 in
20:45 43.3 °F 38.8 °F 30.1 in Calm   1 mph 84 % 0 in
20:53 52.9 °F 46.6 °F 30 in SW 1.2 mph   79 % 0 in
20:58 52.9 °F 46.6 °F 30 in SW 2.4 mph 2.4 mph 79 % 0 in
21:05 43 °F 38.5 °F 30 in Calm   1 mph 84 % 0 in
21:08 52.5 °F 46.2 °F 30 in WSW 2.3 mph 2.3 mph 79 % 0 in
21:15 42.8 °F 37.9 °F 30.1 in WSW 2 mph 2 mph 83 % 0 in
21:18 52.3 °F 46.4 °F 30 in West 1.2 mph   80 % 0 in
21:25 42.3 °F 37.6 °F 30.1 in Calm   2 mph 83 % 0 in
21:28 52 °F 46 °F 30 in Calm     80 % 0 in
21:33 52 °F 46 °F 30 in Calm     80 % 0 in
21:34 52 °F 46.2 °F 30 in Calm     81 % 0 in
21:35 42.4 °F 37.6 °F 30.1 in SW 2 mph 2 mph 83 % 0 in
21:44 52.2 °F 46.2 °F 30 in Calm     80 % 0 in
21:49 52.2 °F 46.6 °F 30 in Calm     81 % 0 in
21:54 52.3 °F 46.4 °F 30 in WNW 2.3 mph 2.3 mph 80 % 0 in
21:55 42.8 °F 38.3 °F 30.1 in Calm     84 % 0 in
21:59 52.2 °F 46.2 °F 30 in North 1.4 mph   80 % 0 in
22:04 51.8 °F 46.2 °F 30 in Calm     81 % 0 in
22:05 43.3 °F 39 °F 30.1 in Calm   2 mph 85 % 0 in
22:09 51.6 °F 45.7 °F 30 in Calm     80 % 0 in
22:15 43.5 °F 39.4 °F 30.1 in NNW 1 mph 2 mph 85 % 0 in
22:24 51.1 °F 45.5 °F 30 in Calm     81 % 0 in
22:25 43.7 °F 39.6 °F 30.1 in Calm   1 mph 85 % 0 in
22:29 50.7 °F 44.8 °F 30 in West 2.3 mph 2.3 mph 80 % 0 in
22:34 50.7 °F 44.8 °F 30 in WSW 2.3 mph 2.3 mph 80 % 0 in
22:39 50.7 °F 44.8 °F 30 in WSW 2.3 mph 2.3 mph 80 % 0 in
22:44 50.5 °F 45 °F 30 in SW 1.4 mph 1.4 mph 81 % 0 in
22:55 42.4 °F 37.9 °F 30.1 in SW 2 mph 3 mph 84 % 0 in
22:59 49.5 °F 43.5 °F 30.1 in SW 1.2 mph 1.2 mph 80 % 0 in
23:04 49.3 °F 43.7 °F 30.1 in SSE 1.2 mph   81 % 0 in
23:05 42.1 °F 37.2 °F 30.1 in SW 2 mph 4 mph 83 % 0 in
23:09 49.1 °F 43.5 °F 30.1 in WSW 1.4 mph 1.4 mph 81 % 0 in
23:15 41.7 °F 36.9 °F 30.1 in SW 2 mph 3 mph 83 % 0 in
23:19 48.7 °F 43.2 °F 30.1 in Calm     81 % 0 in
23:24 48.6 °F 43 °F 30.1 in SW 2.3 mph 2.3 mph 81 % 0 in
23:25 42.1 °F 37.6 °F 30.1 in WSW 1 mph 2 mph 84 % 0 in
23:29 48.4 °F 42.4 °F 30.1 in SW 2.9 mph 2.9 mph 80 % 0 in
23:34 48.2 °F 42.3 °F 30.1 in SW 2.3 mph 2.3 mph 80 % 0 in
23:35 42.4 °F 38.1 °F 30.1 in Calm   1 mph 85 % 0 in
23:45 43.7 °F 39.6 °F 30.1 in West 1 mph 2 mph 85 % 0 in
23:55 44.4 °F 40.3 °F 30.1 in Calm   2 mph 85 % 0 in
23:59 47.3 °F 42.1 °F 30.1 in NW 2.3 mph 2.3 mph 82 % 0 in
Meteo Sesrovires
Elogis d' Weather Underground - 3.25 mb

Guio original per  Jim McMurry - jmcmurry@mwt.net Adaptat per a la plantilla per  Wim van der Kuil - Leuven-Template.eu

Trobareu la nostra informacio del temps tambe a:

Weather Underground

AWEKAS